createdAt,value
2022-08-23T00:02:26.541Z,93625.72
2022-08-23T00:05:08.236Z,93634.31
2022-08-23T00:07:41.752Z,93634.53
2022-08-23T00:10:10.957Z,93627.75
2022-08-23T00:12:38.306Z,93630.13
2022-08-23T00:15:06.496Z,93642.59
2022-08-23T00:17:35.073Z,93642.59
2022-08-23T00:20:12.275Z,93640.16
2022-08-23T00:22:41.862Z,93637.84
2022-08-23T00:25:11.077Z,93635.41
2022-08-23T00:27:38.059Z,93639.09
2022-08-23T00:30:08.789Z,93633.78
2022-08-23T00:32:37.231Z,93626.72
2022-08-23T00:35:06.623Z,93631.16
2022-08-23T00:37:33.840Z,93633.09
2022-08-23T00:40:01.037Z,93629.63
2022-08-23T00:43:03.493Z,93630.66
2022-08-23T00:46:06.521Z,93629.38
2022-08-23T00:48:34.414Z,93626.72
2022-08-23T00:51:11.018Z,93621.06
2022-08-23T00:53:42.113Z,93628.94
2022-08-23T00:56:12.407Z,93633.88
2022-08-23T00:58:39.353Z,93634.81
2022-08-23T01:01:06.651Z,93641.50
2022-08-23T01:03:38.396Z,93644.06
2022-08-23T01:06:18.218Z,93642.09
2022-08-23T01:08:50.539Z,93638.53
2022-08-23T01:11:25.830Z,93641.75
2022-08-23T01:14:24.411Z,93640.22
2022-08-23T01:16:57.456Z,93639.22
2022-08-23T01:19:32.905Z,93638.56
2022-08-23T01:22:10.904Z,93648.00
2022-08-23T01:25:06.052Z,93635.41
2022-08-23T01:27:25.650Z,93639.66
2022-08-23T01:29:52.359Z,93654.44
2022-08-23T01:32:19.833Z,93646.50
2022-08-23T01:34:51.973Z,93641.66
2022-08-23T01:37:19.654Z,93642.69
2022-08-23T01:39:46.360Z,93645.50
2022-08-23T01:42:13.120Z,93643.56
2022-08-23T01:44:39.838Z,93633.38
2022-08-23T01:47:07.789Z,93630.38
2022-08-23T01:49:35.245Z,93634.31
2022-08-23T01:52:02.084Z,93637.19
2022-08-23T01:54:29.394Z,93637.34
2022-08-23T01:56:56.635Z,93647.09
2022-08-23T01:59:24.257Z,93630.66
2022-08-23T02:01:51.420Z,93636.22
2022-08-23T02:04:18.259Z,93629.28
2022-08-23T02:06:45.302Z,93625.28
2022-08-23T02:09:17.504Z,93616.69
2022-08-23T02:11:44.951Z,93623.66
2022-08-23T02:14:16.025Z,93615.50
2022-08-23T02:17:03.966Z,93620.84
2022-08-23T02:19:35.357Z,93626.63
2022-08-23T02:22:03.556Z,93620.91
2022-08-23T02:24:31.608Z,93617.72
2022-08-23T02:27:02.259Z,93615.75
2022-08-23T02:29:32.436Z,93615.34
2022-08-23T02:32:00.378Z,93605.81
2022-08-23T02:34:27.902Z,93607.75
2022-08-23T02:36:54.978Z,93603.38
2022-08-23T02:39:22.083Z,93603.09
2022-08-23T02:41:49.891Z,93596.22
2022-08-23T02:44:16.843Z,93599.63
2022-08-23T02:46:43.630Z,93598.06
2022-08-23T02:49:10.287Z,93598.25
2022-08-23T02:51:37.469Z,93607.25
2022-08-23T02:54:05.732Z,93611.84
2022-08-23T02:56:33.802Z,93613.81
2022-08-23T02:59:00.501Z,93611.09
2022-08-23T03:01:30.068Z,93609.47
2022-08-23T03:03:57.756Z,93603.75
2022-08-23T03:06:26.453Z,93604.28
2022-08-23T03:08:54.458Z,93606.25
2022-08-23T03:11:22.552Z,93604.66
2022-08-23T03:13:50.733Z,93606.09
2022-08-23T03:16:18.306Z,93609.38
2022-08-23T03:18:45.418Z,93609.66
2022-08-23T03:21:12.203Z,93613.03
2022-08-23T03:23:40.384Z,93604.31
2022-08-23T03:26:09.119Z,93614.50
2022-08-23T03:28:37.661Z,93618.63
2022-08-23T03:31:05.510Z,93615.50
2022-08-23T03:33:32.231Z,93620.03
2022-08-23T03:36:01.373Z,93620.97
2022-08-23T03:38:28.169Z,93616.13
2022-08-23T03:40:54.991Z,93628.25
2022-08-23T03:43:22.194Z,93631.63
2022-08-23T03:45:48.869Z,93641.44
2022-08-23T03:48:16.230Z,93643.22
2022-08-23T03:50:44.216Z,93650.09
2022-08-23T03:53:12.228Z,93661.47
2022-08-23T03:55:42.686Z,93668.28
2022-08-23T03:58:10.783Z,93675.38
2022-08-23T04:00:39.118Z,93679.53
2022-08-23T04:03:05.805Z,93690.38
2022-08-23T04:05:32.472Z,93697.88
2022-08-23T04:07:59.650Z,93702.22
2022-08-23T04:10:26.578Z,93713.06
2022-08-23T04:12:54.961Z,93711.53
2022-08-23T04:15:22.892Z,93714.81
2022-08-23T04:17:49.584Z,93719.16
2022-08-23T04:20:16.592Z,93715.34
2022-08-23T04:22:44.590Z,93716.59
2022-08-23T04:25:33.995Z,93715.44
2022-08-23T04:28:00.805Z,93708.97
2022-08-23T04:30:28.000Z,93706.25
2022-08-23T04:32:54.668Z,93704.34
2022-08-23T04:35:22.707Z,93705.81
2022-08-23T04:37:49.431Z,93705.44
2022-08-23T04:40:35.004Z,93711.38
2022-08-23T04:43:02.535Z,93712.06
2022-08-23T04:45:29.719Z,93705.47
2022-08-23T04:47:56.851Z,93705.53
2022-08-23T04:50:23.931Z,93704.78
2022-08-23T04:52:51.025Z,93702.72
2022-08-23T04:55:17.770Z,93711.94
2022-08-23T04:57:44.829Z,93710.34
2022-08-23T05:00:14.163Z,93709.81
2022-08-23T05:02:41.123Z,93720.09
2022-08-23T05:05:10.981Z,93719.34
2022-08-23T05:07:42.495Z,93706.47
2022-08-23T05:10:15.260Z,93715.19
2022-08-23T05:12:42.296Z,93724.00
2022-08-23T05:15:09.821Z,93723.56
2022-08-23T05:17:37.068Z,93724.91
2022-08-23T05:20:07.057Z,93733.91
2022-08-23T05:22:35.415Z,93740.94
2022-08-23T05:25:02.137Z,93744.63
2022-08-23T05:27:28.831Z,93745.53
2022-08-23T05:29:55.710Z,93746.28
2022-08-23T05:32:23.001Z,93751.78
2022-08-23T05:34:50.012Z,93747.75
2022-08-23T05:37:17.942Z,93749.53
2022-08-23T05:39:44.646Z,93744.22
2022-08-23T05:42:14.890Z,93747.06
2022-08-23T05:44:42.161Z,93749.56
2022-08-23T05:47:12.758Z,93754.03
2022-08-23T05:49:42.553Z,93756.22
2022-08-23T05:52:12.134Z,93759.56
2022-08-23T05:54:38.765Z,93756.72
2022-08-23T05:57:05.533Z,93759.63
2022-08-23T05:59:32.202Z,93758.16
2022-08-23T06:01:58.840Z,93759.19
2022-08-23T06:04:25.489Z,93758.75
2022-08-23T06:06:52.179Z,93768.44
2022-08-23T06:09:19.445Z,93771.19
2022-08-23T06:11:48.019Z,93771.25
2022-08-23T06:14:15.119Z,93767.44
2022-08-23T06:16:45.826Z,93775.56
2022-08-23T06:19:14.262Z,93781.72
2022-08-23T06:21:42.031Z,93777.56
2022-08-23T06:24:09.349Z,93781.06
2022-08-23T06:26:39.832Z,93785.56
2022-08-23T06:29:14.661Z,93789.97
2022-08-23T06:31:50.101Z,93792.03
2022-08-23T06:34:26.422Z,93795.19
2022-08-23T06:36:56.498Z,93795.50
2022-08-23T06:39:25.316Z,93794.28
2022-08-23T06:41:52.654Z,93799.16
2022-08-23T06:44:20.182Z,93796.63
2022-08-23T06:46:48.870Z,93797.22
2022-08-23T06:49:16.538Z,93798.72
2022-08-23T06:51:50.401Z,93795.22
2022-08-23T06:54:22.033Z,93800.81
2022-08-23T06:56:49.680Z,93791.06
2022-08-23T06:59:17.492Z,93808.53
2022-08-23T07:01:52.250Z,93809.50
2022-08-23T07:04:22.911Z,93809.81
2022-08-23T07:06:49.547Z,93800.56
2022-08-23T07:09:16.699Z,93804.03
2022-08-23T07:11:43.404Z,93803.25
2022-08-23T07:14:13.151Z,93798.66
2022-08-23T07:17:01.371Z,93809.59
2022-08-23T07:19:31.585Z,93801.41
2022-08-23T07:21:59.033Z,93805.97
2022-08-23T07:24:32.120Z,93807.81
2022-08-23T07:27:01.818Z,93798.50
2022-08-23T07:29:30.125Z,93803.97
2022-08-23T07:31:57.151Z,93802.31
2022-08-23T07:34:25.054Z,93808.09
2022-08-23T07:36:53.528Z,93809.41
2022-08-23T07:39:22.312Z,93805.03
2022-08-23T07:41:49.593Z,93813.44
2022-08-23T07:44:18.201Z,93810.69
2022-08-23T07:46:46.658Z,93809.63
2022-08-23T07:49:14.428Z,93818.91
2022-08-23T07:51:45.564Z,93815.50
2022-08-23T07:54:13.047Z,93817.47
2022-08-23T07:56:40.665Z,93813.25
2022-08-23T07:59:08.813Z,93817.81
2022-08-23T08:01:36.218Z,93811.31
2022-08-23T08:04:05.256Z,93814.63
2022-08-23T08:06:41.218Z,93824.16
2022-08-23T08:09:09.446Z,93824.72
2022-08-23T08:11:36.330Z,93823.91
2022-08-23T08:14:08.928Z,93824.28
2022-08-23T08:16:39.351Z,93833.22
2022-08-23T08:19:08.916Z,93826.03
2022-08-23T08:21:39.647Z,93836.81
2022-08-23T08:24:11.412Z,93839.13
2022-08-23T08:26:38.532Z,93843.94
2022-08-23T08:29:06.230Z,93844.72
2022-08-23T08:31:34.512Z,93844.09
2022-08-23T08:34:01.260Z,93841.84
2022-08-23T08:36:41.537Z,93831.09
2022-08-23T08:39:11.695Z,93837.66
2022-08-23T08:41:44.198Z,93835.56
2022-08-23T08:44:22.212Z,93847.59
2022-08-23T08:46:53.273Z,93848.44
2022-08-23T08:49:44.518Z,93840.88
2022-08-23T08:52:16.210Z,93833.47
2022-08-23T08:54:48.139Z,93833.97
2022-08-23T08:57:18.540Z,93831.75
2022-08-23T08:59:59.714Z,93823.31
2022-08-23T09:02:32.781Z,93817.91
2022-08-23T09:05:09.602Z,93819.84
2022-08-23T09:07:47.369Z,93814.00
2022-08-23T09:10:32.329Z,93810.53
2022-08-23T09:13:19.864Z,93800.31
2022-08-23T09:15:52.902Z,93803.19
2022-08-23T09:18:19.655Z,93789.34
2022-08-23T09:20:51.177Z,93782.59
2022-08-23T09:23:31.840Z,93800.59
2022-08-23T09:26:03.702Z,93787.53
2022-08-23T09:28:34.438Z,93782.69
2022-08-23T09:31:01.566Z,93787.81
2022-08-23T09:33:41.854Z,93786.97
2022-08-23T09:36:14.806Z,93783.94
2022-08-23T09:38:56.763Z,93794.25
2022-08-23T09:41:32.882Z,93798.44
2022-08-23T09:44:02.508Z,93793.63
2022-08-23T09:46:36.031Z,93805.53
2022-08-23T09:49:23.745Z,93805.19
2022-08-23T09:51:54.204Z,93800.63
2022-08-23T09:54:27.691Z,93800.84
2022-08-23T09:56:57.670Z,93802.44
2022-08-23T09:59:27.425Z,93803.94
2022-08-23T10:01:57.189Z,93798.81
2022-08-23T10:04:40.095Z,93803.03
2022-08-23T10:07:40.334Z,93805.03
2022-08-23T10:10:27.994Z,93809.75
2022-08-23T10:12:56.598Z,93806.66
2022-08-23T10:15:36.350Z,93801.25
2022-08-23T10:18:26.753Z,93807.31
2022-08-23T10:21:20.909Z,93803.00
2022-08-23T10:24:08.751Z,93805.38
2022-08-23T10:26:43.848Z,93805.59
2022-08-23T10:29:39.126Z,93799.44
2022-08-23T10:32:17.836Z,93802.66
2022-08-23T10:35:09.315Z,93800.13
2022-08-23T10:37:45.498Z,93795.66
2022-08-23T10:40:40.218Z,93799.56
2022-08-23T10:43:25.854Z,93791.50
2022-08-23T10:45:56.113Z,93787.84
2022-08-23T10:48:29.442Z,93793.09
2022-08-23T10:51:11.534Z,93790.25
2022-08-23T10:53:49.044Z,93790.81
2022-08-23T10:56:20.984Z,93790.44
2022-08-23T10:58:53.181Z,93782.19
2022-08-23T11:01:26.573Z,93785.44
2022-08-23T11:04:06.676Z,93785.44
2022-08-23T11:06:36.185Z,93785.69
2022-08-23T11:09:07.900Z,93779.25
2022-08-23T11:11:45.265Z,93781.50
2022-08-23T11:14:32.122Z,93786.97
2022-08-23T11:17:02.266Z,93788.44
2022-08-23T11:19:47.988Z,93785.09
2022-08-23T11:22:20.918Z,93776.63
2022-08-23T11:25:19.190Z,93774.16
2022-08-23T11:27:46.571Z,93781.88
2022-08-23T11:30:32.144Z,93781.25
2022-08-23T11:33:24.392Z,93776.38
2022-08-23T11:36:16.652Z,93785.00
2022-08-23T11:39:06.828Z,93774.63
2022-08-23T11:41:56.012Z,93773.66
2022-08-23T11:44:48.180Z,93776.00
2022-08-23T11:47:15.486Z,93761.03
2022-08-23T11:50:00.487Z,93767.56
2022-08-23T11:52:34.183Z,93769.75
2022-08-23T11:55:22.154Z,93776.50
2022-08-23T11:58:01.401Z,93773.13
2022-08-23T12:00:53.240Z,93775.56
2022-08-23T12:03:25.540Z,93771.56
2022-08-23T12:05:52.201Z,93777.63
2022-08-23T12:08:29.382Z,93770.81
2022-08-23T12:11:03.086Z,93770.81
2022-08-23T12:13:44.263Z,93765.34
2022-08-23T12:16:16.947Z,93770.66
2022-08-23T12:18:47.555Z,93771.44
2022-08-23T12:21:29.468Z,93770.81
2022-08-23T12:24:03.573Z,93762.88
2022-08-23T12:27:08.704Z,93757.09
2022-08-23T12:29:47.182Z,93762.13
2022-08-23T12:32:28.731Z,93756.63
2022-08-23T12:35:03.255Z,93759.25
2022-08-23T12:37:41.879Z,93763.88
2022-08-23T12:40:13.922Z,93758.50
2022-08-23T12:42:41.941Z,93755.88
2022-08-23T12:45:21.542Z,93751.28
2022-08-23T12:48:01.408Z,93753.88
2022-08-23T12:50:38.673Z,93747.19
2022-08-23T12:53:10.656Z,93744.03
2022-08-23T12:55:42.478Z,93745.47
2022-08-23T12:58:12.330Z,93752.19
2022-08-23T13:00:43.413Z,93749.97
2022-08-23T13:03:18.025Z,93744.59
2022-08-23T13:05:55.342Z,93746.72
2022-08-23T13:08:37.442Z,93746.44
2022-08-23T13:11:08.344Z,93753.16
2022-08-23T13:13:38.685Z,93746.91
2022-08-23T13:16:42.561Z,93757.97
2022-08-23T13:19:35.311Z,93760.22
2022-08-23T13:22:20.193Z,93751.53
2022-08-23T13:27:59.845Z,93761.38
2022-08-23T13:30:36.257Z,93750.91
2022-08-23T13:33:07.909Z,93759.97
2022-08-23T13:35:46.940Z,93758.03
2022-08-23T13:38:21.430Z,93756.59
2022-08-23T13:41:03.831Z,93749.13
2022-08-23T13:43:45.375Z,93737.16
2022-08-23T13:46:28.347Z,93734.69
2022-08-23T13:49:00.780Z,93728.25
2022-08-23T13:51:33.639Z,93729.06
2022-08-23T13:54:06.829Z,93741.44
2022-08-23T13:56:55.210Z,93744.41
2022-08-23T13:59:31.552Z,93739.94
2022-08-23T14:02:05.153Z,93744.03
2022-08-23T14:04:32.496Z,93743.69
2022-08-23T14:06:59.167Z,93761.81
2022-08-23T14:09:26.682Z,93770.66
2022-08-23T14:11:57.915Z,93783.66
2022-08-23T14:14:25.422Z,93781.25
2022-08-23T14:16:54.439Z,93793.25
2022-08-23T14:22:07.974Z,93787.34
2022-08-23T14:24:34.941Z,93795.09
2022-08-23T14:27:01.901Z,93795.56
2022-08-23T14:29:28.631Z,93795.97
2022-08-23T14:31:57.411Z,93800.03
2022-08-23T14:34:24.216Z,93801.97
2022-08-23T14:39:39.208Z,93811.47
2022-08-23T14:42:06.657Z,93824.94
2022-08-23T14:44:36.190Z,93826.84
2022-08-23T14:47:04.848Z,93825.72
2022-08-23T14:49:31.783Z,93833.66
2022-08-23T14:51:58.483Z,93828.59
2022-08-23T14:54:26.776Z,93832.69
2022-08-23T14:56:53.822Z,93834.25
2022-08-23T14:59:20.780Z,93832.91
2022-08-23T15:01:49.418Z,93831.53
2022-08-23T15:04:19.104Z,93826.31
2022-08-23T15:07:06.899Z,93817.03
2022-08-23T15:09:33.372Z,93813.34
2022-08-23T15:14:46.820Z,93799.78
2022-08-23T15:17:14.489Z,93796.31
2022-08-23T15:19:41.278Z,93806.38
2022-08-23T15:22:21.287Z,93794.88
2022-08-23T15:24:49.296Z,93795.63
2022-08-23T15:27:17.946Z,93796.66
2022-08-23T15:29:44.731Z,93789.66
2022-08-23T15:32:12.764Z,93794.44
2022-08-23T15:34:46.161Z,93794.44
2022-08-23T15:37:13.830Z,93803.06
2022-08-23T15:39:41.888Z,93790.97
2022-08-23T15:42:08.733Z,93795.34
2022-08-23T15:44:35.402Z,93791.28
2022-08-23T15:47:04.960Z,93794.34
2022-08-23T15:49:36.551Z,93793.66
2022-08-23T15:52:04.269Z,93783.53
2022-08-23T15:54:31.010Z,93786.84
2022-08-23T15:56:57.937Z,93794.53
2022-08-23T15:59:25.142Z,93797.06
2022-08-23T16:01:52.107Z,93795.13
2022-08-23T16:04:18.888Z,93799.72
2022-08-23T16:06:45.923Z,93810.81
2022-08-23T16:09:22.980Z,93820.97
2022-08-23T16:11:50.599Z,93828.09
2022-08-23T16:14:17.561Z,93832.34
2022-08-23T16:16:46.762Z,93838.19
2022-08-23T16:19:14.452Z,93827.63
2022-08-23T16:21:44.170Z,93829.56
2022-08-23T16:24:11.388Z,93829.47
2022-08-23T16:26:41.959Z,93831.22
2022-08-23T16:29:13.325Z,93835.38
2022-08-23T16:31:41.756Z,93836.16
2022-08-23T16:34:13.115Z,93843.56
2022-08-23T16:36:42.482Z,93859.97
2022-08-23T16:39:11.759Z,93856.25
2022-08-23T16:41:38.574Z,93846.81
2022-08-23T16:44:05.530Z,93855.22
2022-08-23T16:46:32.603Z,93850.50
2022-08-23T16:48:59.335Z,93854.91
2022-08-23T16:51:26.596Z,93847.59
2022-08-23T16:54:02.785Z,93850.53
2022-08-23T16:56:32.018Z,93846.97
2022-08-23T16:58:59.255Z,93846.28
2022-08-23T17:01:27.215Z,93845.09
2022-08-23T17:03:55.442Z,93853.72
2022-08-23T17:06:22.625Z,93856.09
2022-08-23T17:08:49.511Z,93867.03
2022-08-23T17:11:19.425Z,93872.03
2022-08-23T17:13:46.563Z,93870.88
2022-08-23T17:16:13.320Z,93871.34
2022-08-23T17:18:40.751Z,93868.72
2022-08-23T17:21:07.757Z,93881.81
2022-08-23T17:23:39.328Z,93887.59
2022-08-23T17:26:08.726Z,93897.19
2022-08-23T17:28:35.694Z,93898.38
2022-08-23T17:31:02.720Z,93905.56
2022-08-23T17:33:29.463Z,93908.88
2022-08-23T17:35:56.140Z,93911.03
2022-08-23T17:38:22.897Z,93913.06
2022-08-23T17:40:50.066Z,93907.31
2022-08-23T17:43:16.751Z,93918.22
2022-08-23T17:45:46.622Z,93929.59
2022-08-23T17:48:15.743Z,93927.22
2022-08-23T17:50:43.742Z,93931.03
2022-08-23T17:53:11.355Z,93943.91
2022-08-23T17:55:38.051Z,93943.38
2022-08-23T17:58:05.503Z,93946.44
2022-08-23T18:00:34.937Z,93949.81
2022-08-23T18:03:01.931Z,93935.56
2022-08-23T18:05:30.344Z,93936.75
2022-08-23T18:07:57.041Z,93944.16
2022-08-23T18:10:25.460Z,93935.19
2022-08-23T18:12:52.331Z,93940.97
2022-08-23T18:15:19.170Z,93933.44
2022-08-23T18:17:46.371Z,93942.09
2022-08-23T18:20:13.466Z,93944.34
2022-08-23T18:22:40.296Z,93938.50
2022-08-23T18:25:09.437Z,93945.41
2022-08-23T18:27:55.259Z,93947.28
2022-08-23T18:30:22.082Z,93951.69
2022-08-23T18:32:48.795Z,93947.22
2022-08-23T18:35:15.653Z,93945.91
2022-08-23T18:37:43.304Z,93959.28
2022-08-23T18:40:10.775Z,93966.84
2022-08-23T18:42:38.367Z,93960.44
2022-08-23T18:45:06.903Z,93948.59
2022-08-23T18:47:35.005Z,93924.66
2022-08-23T18:50:01.779Z,93924.69
2022-08-23T18:52:31.142Z,93923.59
2022-08-23T18:54:58.265Z,93925.13
2022-08-23T18:57:25.436Z,93927.19
2022-08-23T18:59:52.648Z,93917.41
2022-08-23T19:02:19.634Z,93916.22
2022-08-23T19:04:46.519Z,93925.50
2022-08-23T19:07:13.186Z,93932.50
2022-08-23T19:09:39.804Z,93929.59
2022-08-23T19:12:06.804Z,93935.53
2022-08-23T19:14:35.573Z,93934.63
2022-08-23T19:17:08.152Z,93933.13
2022-08-23T19:19:35.131Z,93936.47
2022-08-23T19:22:01.834Z,93920.84
2022-08-23T19:24:28.779Z,93918.91
2022-08-23T19:26:55.779Z,93919.06
2022-08-23T19:29:22.531Z,93922.34
2022-08-23T19:31:50.296Z,93925.13
2022-08-23T19:34:19.700Z,93926.94
2022-08-23T19:36:51.278Z,93932.69
2022-08-23T19:39:27.379Z,93920.53
2022-08-23T19:41:54.066Z,93934.47
2022-08-23T19:44:21.422Z,93938.91
2022-08-23T19:46:48.383Z,93935.50
2022-08-23T19:49:15.398Z,93948.31
2022-08-23T19:51:43.259Z,93950.84
2022-08-23T19:54:12.597Z,93942.81
2022-08-23T19:56:42.504Z,93951.72
2022-08-23T19:59:12.588Z,93952.47
2022-08-23T20:01:40.433Z,93944.25
2022-08-23T20:04:07.667Z,93948.03
2022-08-23T20:06:35.701Z,93967.28
2022-08-23T20:09:04.820Z,93977.38
2022-08-23T20:11:32.432Z,93980.19
2022-08-23T20:14:00.197Z,93987.28
2022-08-23T20:16:28.088Z,94004.25
2022-08-23T20:18:55.365Z,94008.59
2022-08-23T20:21:23.926Z,94016.59
2022-08-23T20:24:04.387Z,94023.78
2022-08-23T20:26:40.659Z,94019.84
2022-08-23T20:29:22.636Z,94029.22
2022-08-23T20:31:53.621Z,94012.97
2022-08-23T20:34:21.983Z,94004.47
2022-08-23T20:36:52.660Z,93998.31
2022-08-23T20:39:23.749Z,94003.19
2022-08-23T20:41:52.171Z,94001.94
2022-08-23T20:44:19.964Z,94009.31
2022-08-23T20:46:50.722Z,93998.00
2022-08-23T20:49:21.118Z,93988.97
2022-08-23T20:51:48.064Z,93988.47
2022-08-23T20:54:16.826Z,93997.44
2022-08-23T20:56:43.845Z,94001.03
2022-08-23T20:59:10.611Z,94003.66
2022-08-23T21:01:37.346Z,94009.94
2022-08-23T21:04:05.487Z,94015.69
2022-08-23T21:06:39.191Z,94018.25
2022-08-23T21:09:16.359Z,94023.03
2022-08-23T21:11:43.702Z,94029.03
2022-08-23T21:14:10.331Z,94028.28
2022-08-23T21:16:37.176Z,94018.78
2022-08-23T21:19:04.036Z,94025.16
2022-08-23T21:21:31.167Z,94025.09
2022-08-23T21:23:58.028Z,94024.06
2022-08-23T21:26:25.308Z,94021.13
2022-08-23T21:28:52.199Z,94017.63
2022-08-23T21:31:23.321Z,94021.88
2022-08-23T21:33:50.325Z,94014.09
2022-08-23T21:36:19.189Z,94017.19
2022-08-23T21:38:46.373Z,94011.84
2022-08-23T21:41:47.137Z,94016.09
2022-08-23T21:44:22.872Z,94015.34
2022-08-23T21:46:49.535Z,94008.06
2022-08-23T21:49:17.101Z,94018.91
2022-08-23T21:51:45.309Z,94018.88
2022-08-23T21:54:13.294Z,94012.78
2022-08-23T21:56:40.715Z,94011.16
2022-08-23T21:59:11.207Z,94008.75
2022-08-23T22:01:39.316Z,94013.03
2022-08-23T22:04:08.874Z,94013.28
2022-08-23T22:06:38.256Z,94010.56
2022-08-23T22:09:10.953Z,94005.19
2022-08-23T22:11:40.670Z,94007.63
2022-08-23T22:14:12.620Z,94013.31
2022-08-23T22:16:41.066Z,94021.94
2022-08-23T22:19:07.721Z,94019.31
2022-08-23T22:21:35.397Z,94019.72
2022-08-23T22:24:02.818Z,94025.44
2022-08-23T22:26:29.721Z,94020.00
2022-08-23T22:28:57.224Z,94015.66
2022-08-23T22:31:24.861Z,94021.63
2022-08-23T22:33:52.829Z,94018.47
2022-08-23T22:36:22.987Z,94016.09
2022-08-23T22:38:51.740Z,94019.25
2022-08-23T22:41:21.929Z,94021.13
2022-08-23T22:43:48.574Z,94012.50
2022-08-23T22:46:15.343Z,94006.03
2022-08-23T22:48:42.542Z,94000.06
2022-08-23T22:51:21.859Z,93994.63
2022-08-23T22:53:51.742Z,93999.75
2022-08-23T22:56:26.856Z,93989.66
2022-08-23T22:58:54.379Z,93985.09
2022-08-23T23:01:30.963Z,93983.97
2022-08-23T23:03:59.536Z,93990.88
2022-08-23T23:06:27.919Z,93989.53
2022-08-23T23:08:56.270Z,93977.00
2022-08-23T23:11:23.789Z,93975.06
2022-08-23T23:13:50.982Z,93977.81
2022-08-23T23:16:22.183Z,93970.50
2022-08-23T23:19:27.784Z,93973.84
2022-08-23T23:21:56.731Z,93963.69
2022-08-23T23:24:27.039Z,93963.13
2022-08-23T23:26:53.842Z,93963.94
2022-08-23T23:29:20.985Z,93944.94
2022-08-23T23:31:48.737Z,93947.56
2022-08-23T23:34:16.122Z,93940.75
2022-08-23T23:36:42.923Z,93941.09
2022-08-23T23:39:11.245Z,93936.38
2022-08-23T23:41:38.628Z,93937.16
2022-08-23T23:44:05.839Z,93937.25
2022-08-23T23:46:32.839Z,93930.09
2022-08-23T23:48:59.455Z,93926.28
2022-08-23T23:51:28.965Z,93926.22
2022-08-23T23:53:57.741Z,93923.09
2022-08-23T23:56:27.460Z,93927.94
2022-08-23T23:58:55.148Z,93919.50
